sensor_id;sensor_type;location;lat;lon;timestamp;pressure;altitude;pressure_sealevel;temperature
80246;BMP280;69558;39.208;-77.226;2023-05-23T00:01:47;100689.50;;;21.94
80246;BMP280;69558;39.208;-77.226;2023-05-23T00:04:14;100698.69;;;21.92
80246;BMP280;69558;39.208;-77.226;2023-05-23T00:06:43;100699.06;;;21.89
80246;BMP280;69558;39.208;-77.226;2023-05-23T00:09:13;100698.25;;;21.88
80246;BMP280;69558;39.208;-77.226;2023-05-23T00:11:40;100698.84;;;21.83
80246;BMP280;69558;39.208;-77.226;2023-05-23T00:14:12;100704.97;;;21.84
80246;BMP280;69558;39.208;-77.226;2023-05-23T00:16:43;100704.34;;;21.82
80246;BMP280;69558;39.208;-77.226;2023-05-23T00:19:10;100702.91;;;21.79
80246;BMP280;69558;39.208;-77.226;2023-05-23T00:21:36;100702.13;;;21.86
80246;BMP280;69558;39.208;-77.226;2023-05-23T00:24:05;100705.78;;;21.91
80246;BMP280;69558;39.208;-77.226;2023-05-23T00:26:31;100702.13;;;21.92
80246;BMP280;69558;39.208;-77.226;2023-05-23T00:28:57;100706.00;;;22.03
80246;BMP280;69558;39.208;-77.226;2023-05-23T00:31:23;100695.88;;;22.00
80246;BMP280;69558;39.208;-77.226;2023-05-23T00:33:50;100703.19;;;22.11
80246;BMP280;69558;39.208;-77.226;2023-05-23T00:36:15;100712.34;;;22.15
80246;BMP280;69558;39.208;-77.226;2023-05-23T00:38:43;100695.84;;;22.06
80246;BMP280;69558;39.208;-77.226;2023-05-23T00:41:10;100710.50;;;22.15
80246;BMP280;69558;39.208;-77.226;2023-05-23T00:43:36;100715.19;;;22.20
80246;BMP280;69558;39.208;-77.226;2023-05-23T00:46:03;100720.47;;;22.20
80246;BMP280;69558;39.208;-77.226;2023-05-23T00:48:30;100717.03;;;22.20
80246;BMP280;69558;39.208;-77.226;2023-05-23T00:50:56;100721.28;;;22.21
80246;BMP280;69558;39.208;-77.226;2023-05-23T00:53:22;100722.88;;;22.22
80246;BMP280;69558;39.208;-77.226;2023-05-23T00:55:48;100730.66;;;22.23
80246;BMP280;69558;39.208;-77.226;2023-05-23T00:58:15;100727.00;;;22.24
80246;BMP280;69558;39.208;-77.226;2023-05-23T01:00:42;100732.03;;;22.26
80246;BMP280;69558;39.208;-77.226;2023-05-23T01:03:10;100718.84;;;22.19
80246;BMP280;69558;39.208;-77.226;2023-05-23T01:05:43;100728.59;;;22.25
80246;BMP280;69558;39.208;-77.226;2023-05-23T01:08:10;100732.88;;;22.20
80246;BMP280;69558;39.208;-77.226;2023-05-23T01:10:36;100737.94;;;22.14
80246;BMP280;69558;39.208;-77.226;2023-05-23T01:13:23;100742.63;;;22.12
80246;BMP280;69558;39.208;-77.226;2023-05-23T01:18:47;100749.09;;;22.03
80246;BMP280;69558;39.208;-77.226;2023-05-23T01:21:21;100736.06;;;21.89
80246;BMP280;69558;39.208;-77.226;2023-05-23T01:24:15;100769.41;;;22.03
80246;BMP280;69558;39.208;-77.226;2023-05-23T01:29:36;100768.59;;;22.02
80246;BMP280;69558;39.208;-77.226;2023-05-23T01:32:06;100773.47;;;22.05
80246;BMP280;69558;39.208;-77.226;2023-05-23T01:34:34;100757.03;;;21.97
80246;BMP280;69558;39.208;-77.226;2023-05-23T01:37:01;100781.03;;;22.15
80246;BMP280;69558;39.208;-77.226;2023-05-23T01:39:27;100786.91;;;22.17
80246;BMP280;69558;39.208;-77.226;2023-05-23T01:41:53;100794.66;;;22.19
80246;BMP280;69558;39.208;-77.226;2023-05-23T01:44:20;100797.31;;;22.19
80246;BMP280;69558;39.208;-77.226;2023-05-23T01:46:46;100796.91;;;22.15
80246;BMP280;69558;39.208;-77.226;2023-05-23T01:49:14;100773.88;;;21.96
80246;BMP280;69558;39.208;-77.226;2023-05-23T01:51:41;100789.72;;;22.02
80246;BMP280;69558;39.208;-77.226;2023-05-23T01:54:08;100807.63;;;22.07
80246;BMP280;69558;39.208;-77.226;2023-05-23T01:56:34;100770.38;;;21.82
80246;BMP280;69558;39.208;-77.226;2023-05-23T01:59:01;100812.91;;;22.00
80246;BMP280;69558;39.208;-77.226;2023-05-23T02:01:28;100799.88;;;21.92
80246;BMP280;69558;39.208;-77.226;2023-05-23T02:03:54;100821.00;;;21.99
80246;BMP280;69558;39.208;-77.226;2023-05-23T02:06:20;100817.38;;;22.00
80246;BMP280;69558;39.208;-77.226;2023-05-23T02:08:46;100782.56;;;21.83
80246;BMP280;69558;39.208;-77.226;2023-05-23T02:11:12;100816.56;;;22.06
80246;BMP280;69558;39.208;-77.226;2023-05-23T02:13:38;100818.63;;;22.10
80246;BMP280;69558;39.208;-77.226;2023-05-23T02:16:04;100823.50;;;22.13
80246;BMP280;69558;39.208;-77.226;2023-05-23T02:18:30;100829.63;;;22.14
80246;BMP280;69558;39.208;-77.226;2023-05-23T02:20:56;100801.13;;;21.96
80246;BMP280;69558;39.208;-77.226;2023-05-23T02:23:22;100832.25;;;22.14
80246;BMP280;69558;39.208;-77.226;2023-05-23T02:25:48;100830.81;;;22.11
80246;BMP280;69558;39.208;-77.226;2023-05-23T02:28:14;100839.34;;;22.07
80246;BMP280;69558;39.208;-77.226;2023-05-23T02:30:40;100823.25;;;21.95
80246;BMP280;69558;39.208;-77.226;2023-05-23T02:33:06;100832.00;;;21.96
80246;BMP280;69558;39.208;-77.226;2023-05-23T02:35:32;100827.31;;;21.91
80246;BMP280;69558;39.208;-77.226;2023-05-23T02:37:59;100827.31;;;21.91
80246;BMP280;69558;39.208;-77.226;2023-05-23T02:40:25;100818.53;;;21.84
80246;BMP280;69558;39.208;-77.226;2023-05-23T02:42:51;100842.72;;;21.94
80246;BMP280;69558;39.208;-77.226;2023-05-23T02:45:17;100845.22;;;21.96
80246;BMP280;69558;39.208;-77.226;2023-05-23T02:47:43;100830.97;;;21.90
80246;BMP280;69558;39.208;-77.226;2023-05-23T02:50:10;100822.44;;;21.95
80246;BMP280;69558;39.208;-77.226;2023-05-23T02:52:36;100823.25;;;21.95
80246;BMP280;69558;39.208;-77.226;2023-05-23T02:55:02;100834.06;;;22.00
80246;BMP280;69558;39.208;-77.226;2023-05-23T02:57:28;100826.28;;;21.99
80246;BMP280;69558;39.208;-77.226;2023-05-23T02:59:54;100831.22;;;22.08
80246;BMP280;69558;39.208;-77.226;2023-05-23T03:02:20;100834.69;;;22.09
80246;BMP280;69558;39.208;-77.226;2023-05-23T03:04:46;100837.31;;;22.09
80246;BMP280;69558;39.208;-77.226;2023-05-23T03:07:12;100842.19;;;22.05
80246;BMP280;69558;39.208;-77.226;2023-05-23T03:09:40;100846.03;;;22.03
80246;BMP280;69558;39.208;-77.226;2023-05-23T03:12:06;100826.50;;;21.91
80246;BMP280;69558;39.208;-77.226;2023-05-23T03:14:31;100847.03;;;21.95
80246;BMP280;69558;39.208;-77.226;2023-05-23T03:16:57;100840.31;;;21.93
80246;BMP280;69558;39.208;-77.226;2023-05-23T03:19:24;100852.72;;;21.92
80246;BMP280;69558;39.208;-77.226;2023-05-23T03:21:51;100817.66;;;21.70
80246;BMP280;69558;39.208;-77.226;2023-05-23T03:24:17;100855.13;;;21.94
80246;BMP280;69558;39.208;-77.226;2023-05-23T03:26:44;100856.38;;;21.98
80246;BMP280;69558;39.208;-77.226;2023-05-23T03:29:10;100853.38;;;22.01
80246;BMP280;69558;39.208;-77.226;2023-05-23T03:31:36;100852.56;;;22.00
80246;BMP280;69558;39.208;-77.226;2023-05-23T03:34:02;100853.94;;;22.03
80246;BMP280;69558;39.208;-77.226;2023-05-23T03:36:30;100859.66;;;22.06
80246;BMP280;69558;39.208;-77.226;2023-05-23T03:39:00;100820.97;;;21.86
80246;BMP280;69558;39.208;-77.226;2023-05-23T03:41:26;100856.00;;;22.07
80246;BMP280;69558;39.208;-77.226;2023-05-23T03:43:52;100860.69;;;22.05
80246;BMP280;69558;39.208;-77.226;2023-05-23T03:46:18;100856.59;;;22.03
80246;BMP280;69558;39.208;-77.226;2023-05-23T03:48:44;100863.28;;;21.99
80246;BMP280;69558;39.208;-77.226;2023-05-23T03:51:10;100841.31;;;21.85
80246;BMP280;69558;39.208;-77.226;2023-05-23T03:53:38;100854.94;;;21.89
80246;BMP280;69558;39.208;-77.226;2023-05-23T03:56:04;100860.81;;;21.91
80246;BMP280;69558;39.208;-77.226;2023-05-23T03:58:30;100859.00;;;21.91
80246;BMP280;69558;39.208;-77.226;2023-05-23T04:00:56;100871.41;;;21.91
80246;BMP280;69558;39.208;-77.226;2023-05-23T04:03:22;100862.81;;;21.82
80246;BMP280;69558;39.208;-77.226;2023-05-23T04:05:48;100864.88;;;21.87
80246;BMP280;69558;39.208;-77.226;2023-05-23T04:08:14;100880.56;;;21.95
80246;BMP280;69558;39.208;-77.226;2023-05-23T04:10:40;100884.41;;;21.99
80246;BMP280;69558;39.208;-77.226;2023-05-23T04:13:06;100883.44;;;22.00
80246;BMP280;69558;39.208;-77.226;2023-05-23T04:15:32;100883.84;;;22.03
80246;BMP280;69558;39.208;-77.226;2023-05-23T04:17:59;100878.53;;;22.03
80246;BMP280;69558;39.208;-77.226;2023-05-23T04:20:24;100878.53;;;22.03
80246;BMP280;69558;39.208;-77.226;2023-05-23T04:22:50;100880.38;;;22.03
80246;BMP280;69558;39.208;-77.226;2023-05-23T04:25:16;100891.13;;;22.01
80246;BMP280;69558;39.208;-77.226;2023-05-23T04:27:44;100872.22;;;21.91
80246;BMP280;69558;39.208;-77.226;2023-05-23T04:30:11;100886.47;;;21.97
80246;BMP280;69558;39.208;-77.226;2023-05-23T04:32:38;100886.81;;;21.94
80246;BMP280;69558;39.208;-77.226;2023-05-23T04:35:04;100886.44;;;21.90
80246;BMP280;69558;39.208;-77.226;2023-05-23T04:37:30;100888.63;;;21.87
80246;BMP280;69558;39.208;-77.226;2023-05-23T04:39:57;100875.81;;;21.77
80246;BMP280;69558;39.208;-77.226;2023-05-23T04:42:26;100897.97;;;21.89
80246;BMP280;69558;39.208;-77.226;2023-05-23T04:44:54;100881.91;;;21.84
80246;BMP280;69558;39.208;-77.226;2023-05-23T04:47:22;100897.81;;;21.91
80246;BMP280;69558;39.208;-77.226;2023-05-23T04:49:49;100883.34;;;21.80
80246;BMP280;69558;39.208;-77.226;2023-05-23T04:52:18;100903.72;;;21.93
80246;BMP280;69558;39.208;-77.226;2023-05-23T04:54:45;100886.38;;;21.83
80246;BMP280;69558;39.208;-77.226;2023-05-23T04:57:13;100897.56;;;21.86
80246;BMP280;69558;39.208;-77.226;2023-05-23T04:59:40;100917.13;;;21.98
80246;BMP280;69558;39.208;-77.226;2023-05-23T05:02:06;100913.47;;;21.99
80246;BMP280;69558;39.208;-77.226;2023-05-23T05:04:34;100908.78;;;21.94
80246;BMP280;69558;39.208;-77.226;2023-05-23T05:07:00;100880.88;;;21.78
80246;BMP280;69558;39.208;-77.226;2023-05-23T05:09:29;100913.25;;;21.94
80246;BMP280;69558;39.208;-77.226;2023-05-23T05:11:58;100884.31;;;21.72
80246;BMP280;69558;39.208;-77.226;2023-05-23T05:14:25;100922.41;;;21.91
80246;BMP280;69558;39.208;-77.226;2023-05-23T05:16:52;100911.78;;;21.85
80246;BMP280;69558;39.208;-77.226;2023-05-23T05:19:19;100909.75;;;21.80
80246;BMP280;69558;39.208;-77.226;2023-05-23T05:21:46;100910.72;;;21.79
80246;BMP280;69558;39.208;-77.226;2023-05-23T05:24:12;100919.31;;;21.88
80246;BMP280;69558;39.208;-77.226;2023-05-23T05:26:38;100915.28;;;21.85
80246;BMP280;69558;39.208;-77.226;2023-05-23T05:29:04;100913.03;;;21.89
80246;BMP280;69558;39.208;-77.226;2023-05-23T05:31:30;100913.22;;;21.87
80246;BMP280;69558;39.208;-77.226;2023-05-23T05:33:57;100881.88;;;21.71
80246;BMP280;69558;39.208;-77.226;2023-05-23T05:36:23;100919.75;;;21.91
80246;BMP280;69558;39.208;-77.226;2023-05-23T05:38:49;100897.16;;;21.82
80246;BMP280;69558;39.208;-77.226;2023-05-23T05:41:15;100909.63;;;21.95
80246;BMP280;69558;39.208;-77.226;2023-05-23T05:43:41;100914.28;;;21.93
80246;BMP280;69558;39.208;-77.226;2023-05-23T05:46:07;100913.66;;;21.91
80246;BMP280;69558;39.208;-77.226;2023-05-23T05:48:33;100916.47;;;21.89
80246;BMP280;69558;39.208;-77.226;2023-05-23T05:50:59;100916.69;;;21.88
80246;BMP280;69558;39.208;-77.226;2023-05-23T05:53:27;100913.63;;;21.84
80246;BMP280;69558;39.208;-77.226;2023-05-23T05:55:53;100913.81;;;21.82
80246;BMP280;69558;39.208;-77.226;2023-05-23T05:58:19;100888.53;;;21.67
80246;BMP280;69558;39.208;-77.226;2023-05-23T06:00:47;100908.09;;;21.79
80246;BMP280;69558;39.208;-77.226;2023-05-23T06:03:13;100906.28;;;21.79
80246;BMP280;69558;39.208;-77.226;2023-05-23T06:05:40;100915.63;;;21.82
80246;BMP280;69558;39.208;-77.226;2023-05-23T06:08:06;100908.75;;;21.81
80246;BMP280;69558;39.208;-77.226;2023-05-23T06:10:32;100914.03;;;21.81
80246;BMP280;69558;39.208;-77.226;2023-05-23T06:12:58;100907.34;;;21.85
80246;BMP280;69558;39.208;-77.226;2023-05-23T06:15:25;100916.06;;;21.86
80246;BMP280;69558;39.208;-77.226;2023-05-23T06:17:51;100910.78;;;21.86
80246;BMP280;69558;39.208;-77.226;2023-05-23T06:20:17;100903.00;;;21.77
80246;BMP280;69558;39.208;-77.226;2023-05-23T06:22:43;100926.06;;;21.90
80246;BMP280;69558;39.208;-77.226;2023-05-23T06:25:09;100902.44;;;21.82
80246;BMP280;69558;39.208;-77.226;2023-05-23T06:27:36;100915.28;;;21.85
80246;BMP280;69558;39.208;-77.226;2023-05-23T06:30:05;100914.63;;;21.83
80246;BMP280;69558;39.208;-77.226;2023-05-23T06:32:32;100926.81;;;21.84
80246;BMP280;69558;39.208;-77.226;2023-05-23T06:34:58;100920.31;;;21.80
80246;BMP280;69558;39.208;-77.226;2023-05-23T06:37:24;100923.78;;;21.80
80246;BMP280;69558;39.208;-77.226;2023-05-23T06:39:50;100912.13;;;21.75
80246;BMP280;69558;39.208;-77.226;2023-05-23T06:42:15;100916.44;;;21.76
80246;BMP280;69558;39.208;-77.226;2023-05-23T06:44:42;100921.50;;;21.77
80246;BMP280;69558;39.208;-77.226;2023-05-23T06:47:08;100917.25;;;21.76
80246;BMP280;69558;39.208;-77.226;2023-05-23T06:49:34;100894.63;;;21.67
80246;BMP280;69558;39.208;-77.226;2023-05-23T06:52:00;100914.78;;;21.75
80246;BMP280;69558;39.208;-77.226;2023-05-23T06:54:26;100918.84;;;21.77
80246;BMP280;69558;39.208;-77.226;2023-05-23T06:56:52;100921.50;;;21.77
80246;BMP280;69558;39.208;-77.226;2023-05-23T06:59:18;100922.31;;;21.78
80246;BMP280;69558;39.208;-77.226;2023-05-23T07:01:44;100923.56;;;21.82
80246;BMP280;69558;39.208;-77.226;2023-05-23T07:04:10;100927.00;;;21.82
80246;BMP280;69558;39.208;-77.226;2023-05-23T07:06:38;100927.41;;;21.79
80246;BMP280;69558;39.208;-77.226;2023-05-23T07:09:04;100924.94;;;21.78
80246;BMP280;69558;39.208;-77.226;2023-05-23T07:11:30;100930.47;;;21.76
80246;BMP280;69558;39.208;-77.226;2023-05-23T07:13:56;100921.66;;;21.69
80246;BMP280;69558;39.208;-77.226;2023-05-23T07:16:22;100938.94;;;21.72
80246;BMP280;69558;39.208;-77.226;2023-05-23T07:18:48;100936.31;;;21.72
80246;BMP280;69558;39.208;-77.226;2023-05-23T07:21:14;100924.31;;;21.69
80246;BMP280;69558;39.208;-77.226;2023-05-23T07:23:40;100928.81;;;21.75
80246;BMP280;69558;39.208;-77.226;2023-05-23T07:26:06;100930.03;;;21.73
80246;BMP280;69558;39.208;-77.226;2023-05-23T07:28:34;100941.97;;;21.69
80246;BMP280;69558;39.208;-77.226;2023-05-23T07:31:00;100938.28;;;21.70
80246;BMP280;69558;39.208;-77.226;2023-05-23T07:33:26;100943.56;;;21.70
80246;BMP280;69558;39.208;-77.226;2023-05-23T07:35:52;100942.19;;;21.74
80246;BMP280;69558;39.208;-77.226;2023-05-23T07:38:18;100943.41;;;21.71
80246;BMP280;69558;39.208;-77.226;2023-05-23T07:40:44;100939.34;;;21.69
80246;BMP280;69558;39.208;-77.226;2023-05-23T07:43:10;100944.66;;;21.75
80246;BMP280;69558;39.208;-77.226;2023-05-23T07:45:36;100942.03;;;21.75
80246;BMP280;69558;39.208;-77.226;2023-05-23T07:48:02;100952.41;;;21.77
80246;BMP280;69558;39.208;-77.226;2023-05-23T07:50:28;100944.00;;;21.67
80246;BMP280;69558;39.208;-77.226;2023-05-23T07:52:54;100948.50;;;21.73
80246;BMP280;69558;39.208;-77.226;2023-05-23T07:55:20;100953.16;;;21.71
80246;BMP280;69558;39.208;-77.226;2023-05-23T07:57:46;100944.38;;;21.64
80246;BMP280;69558;39.208;-77.226;2023-05-23T08:00:12;100955.19;;;21.69
80246;BMP280;69558;39.208;-77.226;2023-05-23T08:02:39;100958.81;;;21.68
80246;BMP280;69558;39.208;-77.226;2023-05-23T08:05:05;100952.91;;;21.66
80246;BMP280;69558;39.208;-77.226;2023-05-23T08:07:31;100958.00;;;21.67
80246;BMP280;69558;39.208;-77.226;2023-05-23T08:09:57;100943.53;;;21.57
80246;BMP280;69558;39.208;-77.226;2023-05-23T08:12:23;100954.72;;;21.65
80246;BMP280;69558;39.208;-77.226;2023-05-23T08:14:49;100964.50;;;21.65
80246;BMP280;69558;39.208;-77.226;2023-05-23T08:17:15;100962.84;;;21.64
80246;BMP280;69558;39.208;-77.226;2023-05-23T08:19:41;100960.84;;;21.66
80246;BMP280;69558;39.208;-77.226;2023-05-23T08:22:06;100960.22;;;21.64
80246;BMP280;69558;39.208;-77.226;2023-05-23T08:24:32;100959.63;;;21.68
80246;BMP280;69558;39.208;-77.226;2023-05-23T08:26:59;100958.63;;;21.69
80246;BMP280;69558;39.208;-77.226;2023-05-23T08:29:24;100957.19;;;21.67
80246;BMP280;69558;39.208;-77.226;2023-05-23T08:31:50;100961.47;;;21.68
80246;BMP280;69558;39.208;-77.226;2023-05-23T08:34:16;100970.41;;;21.67
80246;BMP280;69558;39.208;-77.226;2023-05-23T08:36:42;100968.75;;;21.66
80246;BMP280;69558;39.208;-77.226;2023-05-23T08:39:08;100957.31;;;21.59
80246;BMP280;69558;39.208;-77.226;2023-05-23T08:41:34;100957.09;;;21.54
80246;BMP280;69558;39.208;-77.226;2023-05-23T08:44:00;100970.16;;;21.62
80246;BMP280;69558;39.208;-77.226;2023-05-23T08:46:26;100974.44;;;21.63
80246;BMP280;69558;39.208;-77.226;2023-05-23T08:48:53;100975.63;;;21.60
80246;BMP280;69558;39.208;-77.226;2023-05-23T08:51:25;100950.69;;;21.41
80246;BMP280;69558;39.208;-77.226;2023-05-23T08:53:51;100974.56;;;21.55
80246;BMP280;69558;39.208;-77.226;2023-05-23T08:56:18;100974.41;;;21.56
80246;BMP280;69558;39.208;-77.226;2023-05-23T08:58:45;100976.19;;;21.56
80246;BMP280;69558;39.208;-77.226;2023-05-23T09:01:15;100981.47;;;21.56
80246;BMP280;69558;39.208;-77.226;2023-05-23T09:03:43;100987.38;;;21.58
80246;BMP280;69558;39.208;-77.226;2023-05-23T09:06:09;100981.34;;;21.64
80246;BMP280;69558;39.208;-77.226;2023-05-23T09:08:36;100983.75;;;21.65
80246;BMP280;69558;39.208;-77.226;2023-05-23T09:11:03;100982.34;;;21.63
80246;BMP280;69558;39.208;-77.226;2023-05-23T09:13:34;100979.84;;;21.55
80246;BMP280;69558;39.208;-77.226;2023-05-23T09:16:01;100988.63;;;21.62
80246;BMP280;69558;39.208;-77.226;2023-05-23T09:18:36;100987.03;;;21.61
80246;BMP280;69558;39.208;-77.226;2023-05-23T09:21:03;100996.94;;;21.59
80246;BMP280;69558;39.208;-77.226;2023-05-23T09:23:32;100991.63;;;21.52
80246;BMP280;69558;39.208;-77.226;2023-05-23T09:26:16;100985.91;;;21.48
80246;BMP280;69558;39.208;-77.226;2023-05-23T09:28:44;101004.59;;;21.54
80246;BMP280;69558;39.208;-77.226;2023-05-23T09:31:11;100995.84;;;21.46
80246;BMP280;69558;39.208;-77.226;2023-05-23T09:33:47;101011.75;;;21.53
80246;BMP280;69558;39.208;-77.226;2023-05-23T09:36:13;100987.59;;;21.35
80246;BMP280;69558;39.208;-77.226;2023-05-23T09:38:41;101008.84;;;21.48
80246;BMP280;69558;39.208;-77.226;2023-05-23T09:41:07;101005.97;;;21.49
80246;BMP280;69558;39.208;-77.226;2023-05-23T09:43:37;100998.47;;;21.46
80246;BMP280;69558;39.208;-77.226;2023-05-23T09:46:08;101012.75;;;21.52
80246;BMP280;69558;39.208;-77.226;2023-05-23T09:48:34;101011.13;;;21.58
80246;BMP280;69558;39.208;-77.226;2023-05-23T09:51:08;101002.19;;;21.52
80246;BMP280;69558;39.208;-77.226;2023-05-23T09:53:35;101013.16;;;21.56
80246;BMP280;69558;39.208;-77.226;2023-05-23T09:56:04;101012.97;;;21.57
80246;BMP280;69558;39.208;-77.226;2023-05-23T09:58:33;101018.25;;;21.57
80246;BMP280;69558;39.208;-77.226;2023-05-23T10:01:02;101010.66;;;21.47
80246;BMP280;69558;39.208;-77.226;2023-05-23T10:03:39;101016.75;;;21.48
80246;BMP280;69558;39.208;-77.226;2023-05-23T10:09:01;101036.06;;;21.48
80246;BMP280;69558;39.208;-77.226;2023-05-23T10:14:06;101018.00;;;21.31
80246;BMP280;69558;39.208;-77.226;2023-05-23T10:16:58;101043.91;;;21.42
80246;BMP280;69558;39.208;-77.226;2023-05-23T10:19:37;101049.38;;;21.40
80246;BMP280;69558;39.208;-77.226;2023-05-23T10:22:06;101046.56;;;21.42
80246;BMP280;69558;39.208;-77.226;2023-05-23T10:24:34;101051.28;;;21.46
80246;BMP280;69558;39.208;-77.226;2023-05-23T10:27:00;101055.34;;;21.49
80246;BMP280;69558;39.208;-77.226;2023-05-23T10:29:28;101059.81;;;21.48
80246;BMP280;69558;39.208;-77.226;2023-05-23T10:31:54;101037.94;;;21.33
80246;BMP280;69558;39.208;-77.226;2023-05-23T10:37:04;101073.03;;;21.48
80246;BMP280;69558;39.208;-77.226;2023-05-23T10:39:41;101046.31;;;21.37
80246;BMP280;69558;39.208;-77.226;2023-05-23T10:42:16;101071.38;;;21.47
80246;BMP280;69558;39.208;-77.226;2023-05-23T10:44:44;101068.75;;;21.47
80246;BMP280;69558;39.208;-77.226;2023-05-23T10:47:10;101062.75;;;21.39
80246;BMP280;69558;39.208;-77.226;2023-05-23T10:49:45;101078.63;;;21.45
80246;BMP280;69558;39.208;-77.226;2023-05-23T10:52:18;101071.06;;;21.36
80246;BMP280;69558;39.208;-77.226;2023-05-23T10:54:52;101080.63;;;21.37
80246;BMP280;69558;39.208;-77.226;2023-05-23T10:57:20;101082.00;;;21.33
80246;BMP280;69558;39.208;-77.226;2023-05-23T10:59:49;101092.97;;;21.36
80246;BMP280;69558;39.208;-77.226;2023-05-23T11:02:18;101095.06;;;21.41
80246;BMP280;69558;39.208;-77.226;2023-05-23T11:04:44;101096.72;;;21.42
80246;BMP280;69558;39.208;-77.226;2023-05-23T11:07:28;101095.31;;;21.46
80246;BMP280;69558;39.208;-77.226;2023-05-23T11:10:09;101073.63;;;21.29
80246;BMP280;69558;39.208;-77.226;2023-05-23T11:12:44;101098.59;;;21.48
80246;BMP280;69558;39.208;-77.226;2023-05-23T11:18:08;101103.44;;;21.44
80246;BMP280;69558;39.208;-77.226;2023-05-23T11:20:36;101105.44;;;21.42
80246;BMP280;69558;39.208;-77.226;2023-05-23T11:23:06;101108.91;;;21.43
80246;BMP280;69558;39.208;-77.226;2023-05-23T11:25:51;101099.72;;;21.39
80246;BMP280;69558;39.208;-77.226;2023-05-23T11:28:19;101098.63;;;21.33
80246;BMP280;69558;39.208;-77.226;2023-05-23T11:30:48;101107.44;;;21.40
80246;BMP280;69558;39.208;-77.226;2023-05-23T11:33:15;101109.09;;;21.41
80246;BMP280;69558;39.208;-77.226;2023-05-23T11:35:44;101109.47;;;21.38
80246;BMP280;69558;39.208;-77.226;2023-05-23T11:38:10;101102.47;;;21.31
80246;BMP280;69558;39.208;-77.226;2023-05-23T11:40:40;101114.09;;;21.36
80246;BMP280;69558;39.208;-77.226;2023-05-23T11:43:09;101119.00;;;21.39
80246;BMP280;69558;39.208;-77.226;2023-05-23T11:45:37;101116.19;;;21.41
80246;BMP280;69558;39.208;-77.226;2023-05-23T11:48:05;101118.81;;;21.41
80246;BMP280;69558;39.208;-77.226;2023-05-23T11:50:31;101110.53;;;21.44
80246;BMP280;69558;39.208;-77.226;2023-05-23T11:52:57;101116.41;;;21.46
80246;BMP280;69558;39.208;-77.226;2023-05-23T11:55:23;101127.19;;;21.44
80246;BMP280;69558;39.208;-77.226;2023-05-23T11:57:49;101113.72;;;21.39
80246;BMP280;69558;39.208;-77.226;2023-05-23T12:00:16;101119.47;;;21.43
80246;BMP280;69558;39.208;-77.226;2023-05-23T12:02:45;101118.81;;;21.41
80246;BMP280;69558;39.208;-77.226;2023-05-23T12:05:13;101129.56;;;21.39
80246;BMP280;69558;39.208;-77.226;2023-05-23T12:07:40;101125.50;;;21.37
80246;BMP280;69558;39.208;-77.226;2023-05-23T12:10:08;101126.88;;;21.33
80246;BMP280;69558;39.208;-77.226;2023-05-23T12:12:35;101123.03;;;21.35
80246;BMP280;69558;39.208;-77.226;2023-05-23T12:15:01;101125.03;;;21.33
80246;BMP280;69558;39.208;-77.226;2023-05-23T12:17:27;101126.66;;;21.34
80246;BMP280;69558;39.208;-77.226;2023-05-23T12:19:53;101122.38;;;21.33
80246;BMP280;69558;39.208;-77.226;2023-05-23T12:22:23;101135.22;;;21.36
80246;BMP280;69558;39.208;-77.226;2023-05-23T12:24:52;101131.38;;;21.39
80246;BMP280;69558;39.208;-77.226;2023-05-23T12:27:19;101129.53;;;21.33
80246;BMP280;69558;39.208;-77.226;2023-05-23T12:29:51;101101.59;;;21.24
80246;BMP280;69558;39.208;-77.226;2023-05-23T12:32:17;101132.47;;;21.44
80246;BMP280;69558;39.208;-77.226;2023-05-23T12:34:43;101135.56;;;21.48
80246;BMP280;69558;39.208;-77.226;2023-05-23T12:37:12;101113.78;;;21.25
80246;BMP280;69558;39.208;-77.226;2023-05-23T12:39:42;101135.47;;;21.41
80246;BMP280;69558;39.208;-77.226;2023-05-23T12:42:10;101135.84;;;21.38
80246;BMP280;69558;39.208;-77.226;2023-05-23T12:44:36;101131.94;;;21.34
80246;BMP280;69558;39.208;-77.226;2023-05-23T12:47:02;101106.75;;;21.17
80246;BMP280;69558;39.208;-77.226;2023-05-23T12:49:28;101124.94;;;21.27
80246;BMP280;69558;39.208;-77.226;2023-05-23T12:51:54;101121.34;;;21.28
80246;BMP280;69558;39.208;-77.226;2023-05-23T12:54:20;101133.59;;;21.35
80246;BMP280;69558;39.208;-77.226;2023-05-23T12:56:46;101126.06;;;21.32
80246;BMP280;69558;39.208;-77.226;2023-05-23T12:59:12;101128.03;;;21.30
80246;BMP280;69558;39.208;-77.226;2023-05-23T13:01:38;101132.50;;;21.30
80246;BMP280;69558;39.208;-77.226;2023-05-23T13:04:04;101131.50;;;21.31
80246;BMP280;69558;39.208;-77.226;2023-05-23T13:06:30;101104.41;;;21.22
80246;BMP280;69558;39.208;-77.226;2023-05-23T13:08:56;101121.03;;;21.37
80246;BMP280;69558;39.208;-77.226;2023-05-23T13:11:22;101125.09;;;21.40
80246;BMP280;69558;39.208;-77.226;2023-05-23T13:13:51;101111.66;;;21.35
80246;BMP280;69558;39.208;-77.226;2023-05-23T13:16:17;101140.19;;;21.46
80246;BMP280;69558;39.208;-77.226;2023-05-23T13:18:44;101125.94;;;21.40
80246;BMP280;69558;39.208;-77.226;2023-05-23T13:21:10;101133.66;;;21.42
80246;BMP280;69558;39.208;-77.226;2023-05-23T13:23:36;101133.03;;;21.40
80246;BMP280;69558;39.208;-77.226;2023-05-23T13:26:04;101120.34;;;21.29
80246;BMP280;69558;39.208;-77.226;2023-05-23T13:28:32;101133.22;;;21.38
80246;BMP280;69558;39.208;-77.226;2023-05-23T13:30:58;101106.66;;;21.25
80246;BMP280;69558;39.208;-77.226;2023-05-23T13:33:24;101131.56;;;21.37
80246;BMP280;69558;39.208;-77.226;2023-05-23T13:35:50;101135.22;;;21.36
80246;BMP280;69558;39.208;-77.226;2023-05-23T13:38:18;101133.59;;;21.35
80246;BMP280;69558;39.208;-77.226;2023-05-23T13:40:44;101129.53;;;21.33
80246;BMP280;69558;39.208;-77.226;2023-05-23T13:43:10;101133.44;;;21.37
80246;BMP280;69558;39.208;-77.226;2023-05-23T13:45:36;101107.69;;;21.24
80246;BMP280;69558;39.208;-77.226;2023-05-23T13:48:02;101128.38;;;21.42
80246;BMP280;69558;39.208;-77.226;2023-05-23T13:50:28;101122.88;;;21.37